Time;durP1;ratioP1;P1;durP2;ratioP2;P2;SDS_P1;SDS_P2;PMS_P1;PMS_P2;Temp;Humidity;BMP_temperature;BMP_pressure;BME280_temperature;BME280_humidity;BME280_pressure;Samples;Min_cycle;Max_cycle;Signal;HPM_P1;HPM_P2
2022/11/18 07:33:03;;;;;;;1.65;0.65;;;9.10;99.90;;;;;;11105307;23;20080;-79
2022/11/18 07:38:05;;;;;;;2.53;0.55;;;9.10;99.90;;;;;;10141321;29;20104;-79
2022/11/18 07:43:07;;;;;;;1.40;0.50;;;9.10;99.90;;;;;;10138193;29;20107;-78
2022/11/18 07:48:10;;;;;;;2.65;0.60;;;9.00;99.90;;;;;;10139650;29;20085;-80
2022/11/18 07:53:12;;;;;;;2.35;0.50;;;9.10;99.90;;;;;;10137000;29;20052;-80
2022/11/18 07:58:14;;;;;;;2.03;0.50;;;9.10;99.90;;;;;;10137196;29;20052;-79
2022/11/18 08:03:17;;;;;;;2.05;0.75;;;9.10;99.90;;;;;;10139645;29;20116;-79
2022/11/18 08:08:19;;;;;;;2.03;0.63;;;9.00;99.90;;;;;;10142372;29;20049;-79
2022/11/18 08:13:21;;;;;;;2.75;0.80;;;9.10;99.90;;;;;;10136810;29;20100;-79
2022/11/18 08:18:26;;;;;;;1.80;0.70;;;9.00;99.90;;;;;;10136314;29;20511;-78
2022/11/18 08:23:28;;;;;;;2.72;0.68;;;9.10;99.90;;;;;;10136719;29;20048;-79
2022/11/18 08:28:31;;;;;;;4.90;1.00;;;9.10;99.90;;;;;;10135660;29;20406;-80
2022/11/18 08:33:34;;;;;;;1.83;0.80;;;9.10;99.90;;;;;;10135489;29;20056;-81
2022/11/18 08:38:36;;;;;;;3.00;1.00;;;9.00;99.90;;;;;;10136105;29;20112;-78
2022/11/18 08:43:38;;;;;;;2.72;0.95;;;9.00;99.90;;;;;;10135686;29;20044;-80
2022/11/18 08:48:41;;;;;;;3.75;1.17;;;9.00;99.90;;;;;;10137602;29;20048;-80
2022/11/18 08:53:43;;;;;;;3.05;1.10;;;8.90;99.90;;;;;;10135719;29;20049;-80
2022/11/18 08:58:45;;;;;;;2.33;0.90;;;9.00;99.90;;;;;;10134888;29;20417;-80
2022/11/18 09:03:49;;;;;;;2.80;1.00;;;9.10;99.90;;;;;;10135266;29;20104;-79
2022/11/18 09:08:51;;;;;;;1.73;0.82;;;9.10;99.90;;;;;;10134866;29;20076;-77
2022/11/18 09:13:55;;;;;;;1.83;0.85;;;9.10;99.90;;;;;;10135161;29;20112;-78
2022/11/18 09:18:58;;;;;;;3.10;0.90;;;9.20;99.90;;;;;;10143024;29;20095;-77
2022/11/18 09:24:05;;;;;;;2.10;0.73;;;9.30;99.90;;;;;;10125868;29;20080;-80
2022/11/18 09:29:07;;;;;;;4.70;0.90;;;9.20;99.90;;;;;;10098915;29;20052;-80
2022/11/18 09:34:10;;;;;;;3.35;1.20;;;9.20;99.90;;;;;;10137105;29;20071;-79
2022/11/18 09:39:12;;;;;;;3.00;0.85;;;9.20;99.90;;;;;;10137284;29;20093;-79
2022/11/18 09:44:34;;;;;;;4.47;1.02;;;9.20;99.90;;;;;;10136759;29;20052;-78
2022/11/18 09:49:41;;;;;;;2.05;0.90;;;9.20;99.90;;;;;;10125604;29;20096;-78
2022/11/18 09:54:43;;;;;;;3.25;1.00;;;9.40;99.90;;;;;;10136359;29;20545;-78
2022/11/18 09:59:46;;;;;;;3.00;1.05;;;9.40;99.90;;;;;;10137344;29;20060;-81
2022/11/18 10:04:49;;;;;;;3.20;1.27;;;9.40;99.90;;;;;;10145812;29;20056;-78
2022/11/18 10:09:54;;;;;;;3.85;1.63;;;9.60;99.90;;;;;;10136528;29;20116;-77
2022/11/18 10:15:16;;;;;;;4.78;1.50;;;9.70;99.90;;;;;;10135221;29;20136;-79
2022/11/18 10:20:32;;;;;;;2.90;1.20;;;9.80;99.90;;;;;;10136479;29;20056;-79
2022/11/18 10:25:34;;;;;;;4.85;1.63;;;9.80;99.90;;;;;;10129624;29;20064;-80
2022/11/18 10:30:36;;;;;;;3.10;1.25;;;9.90;99.90;;;;;;10136418;29;20116;-78
2022/11/18 10:35:40;;;;;;;3.60;1.10;;;9.80;99.90;;;;;;10135618;29;20056;-80
2022/11/18 10:40:47;;;;;;;3.40;1.05;;;9.80;99.90;;;;;;10128211;29;20502;-80
2022/11/18 10:45:49;;;;;;;6.68;3.10;;;9.90;99.90;;;;;;10134185;29;20057;-77
2022/11/18 10:50:53;;;;;;;3.90;1.48;;;10.10;99.90;;;;;;10134424;29;20135;-81
2022/11/18 10:55:59;;;;;;;2.25;1.05;;;10.00;99.90;;;;;;10136673;29;20130;-82
2022/11/18 11:01:17;;;;;;;2.42;0.90;;;10.00;99.90;;;;;;10136199;29;20473;-80
2022/11/18 11:06:38;;;;;;;1.83;0.68;;;10.00;99.90;;;;;;10133784;29;20053;-80
2022/11/18 11:11:42;;;;;;;2.05;0.70;;;10.00;99.90;;;;;;10135187;29;20053;-76
2022/11/18 11:16:52;;;;;;;1.50;0.60;;;10.10;99.90;;;;;;10138392;29;20135;-80
2022/11/18 11:21:57;;;;;;;1.83;0.77;;;10.10;99.90;;;;;;10138253;29;20117;-79
2022/11/18 11:27:14;;;;;;;1.50;0.70;;;10.10;99.90;;;;;;10138052;29;20048;-80
2022/11/18 11:32:26;;;;;;;2.22;0.68;;;10.10;99.90;;;;;;10137932;29;20132;-81
2022/11/18 11:37:45;;;;;;;3.10;0.60;;;10.10;99.90;;;;;;10136980;29;20139;-79
2022/11/18 11:43:03;;;;;;;1.52;0.70;;;10.10;99.90;;;;;;10137815;29;20163;-80
2022/11/18 11:48:27;;;;;;;6.47;2.25;;;9.90;99.90;;;;;;10137727;29;20060;-79
2022/11/18 11:53:56;;;;;;;1.90;0.60;;;9.90;99.90;;;;;;10138333;29;20056;-78
2022/11/18 11:59:27;;;;;;;2.25;0.70;;;10.00;99.90;;;;;;10144902;29;20048;-81
2022/11/18 12:04:44;;;;;;;1.55;0.75;;;10.00;99.90;;;;;;10137605;29;20053;-79
2022/11/18 12:10:10;;;;;;;1.60;0.60;;;10.10;99.90;;;;;;10138093;29;20514;-81
2022/11/18 12:15:36;;;;;;;2.00;0.80;;;10.10;99.90;;;;;;10136680;29;20411;-79
2022/11/18 12:20:43;;;;;;;3.15;0.98;;;10.10;99.90;;;;;;10135954;29;20508;-80
2022/11/18 12:26:08;;;;;;;2.67;0.90;;;10.20;99.90;;;;;;10136478;29;20052;-80
2022/11/18 12:31:33;;;;;;;2.65;0.90;;;10.30;99.90;;;;;;10131734;29;20056;-79
2022/11/18 12:36:38;;;;;;;2.45;1.00;;;10.40;99.90;;;;;;10135852;29;20077;-80
2022/11/18 12:47:16;;;;;;;4.10;1.17;;;10.40;99.90;;;;;;10139000;29;20064;-80
2022/11/18 12:52:51;;;;;;;4.90;1.10;;;10.60;99.90;;;;;;10135756;29;20056;-80
2022/11/18 12:57:54;;;;;;;1.77;0.90;;;10.60;99.90;;;;;;10066057;29;20526;-80
2022/11/18 13:02:59;;;;;;;2.58;0.98;;;10.50;99.90;;;;;;10096522;29;20076;-79
2022/11/18 13:08:13;;;;;;;2.15;0.90;;;10.40;99.90;;;;;;10112234;29;20060;-79
2022/11/18 13:13:27;;;;;;;3.97;0.70;;;10.20;99.90;;;;;;10135998;29;20052;-80
2022/11/18 13:18:29;;;;;;;2.85;0.82;;;10.20;99.90;;;;;;10135540;29;20057;-80
2022/11/18 13:29:12;;;;;;;3.13;1.00;;;10.60;99.90;;;;;;10119683;29;20052;-80
2022/11/18 13:34:20;;;;;;;3.85;0.90;;;10.80;99.90;;;;;;10123001;29;20057;-81
2022/11/18 13:39:25;;;;;;;3.70;1.20;;;10.80;99.90;;;;;;10106113;29;20089;-79
2022/11/18 13:44:31;;;;;;;4.15;1.10;;;10.80;99.90;;;;;;10124280;29;20056;-80
2022/11/18 13:49:45;;;;;;;3.83;1.10;;;10.80;99.90;;;;;;10127850;29;20068;-87
2022/11/18 13:54:48;;;;;;;2.92;0.77;;;10.60;99.90;;;;;;10128434;29;20079;-80
2022/11/18 13:59:53;;;;;;;3.10;0.75;;;10.70;99.90;;;;;;10133602;29;20091;-80
2022/11/18 14:04:58;;;;;;;2.72;0.85;;;10.70;99.90;;;;;;10154139;29;20057;-80
2022/11/18 14:10:03;;;;;;;2.53;0.80;;;10.70;99.90;;;;;;10152773;29;20048;-82
2022/11/18 14:15:21;;;;;;;3.20;0.90;;;10.60;99.90;;;;;;10155222;29;20494;-79
2022/11/18 14:20:25;;;;;;;2.67;0.90;;;10.50;99.90;;;;;;10138366;29;20061;-78
2022/11/18 14:25:31;;;;;;;2.55;0.80;;;10.40;99.90;;;;;;10143573;29;20056;-79
2022/11/18 14:30:36;;;;;;;2.60;0.80;;;10.30;99.90;;;;;;10143978;29;20056;-81
2022/11/18 14:35:39;;;;;;;3.55;0.80;;;10.30;99.90;;;;;;10136443;29;20148;-81
2022/11/18 14:40:41;;;;;;;3.80;0.90;;;10.30;99.90;;;;;;10106900;29;20064;-77
2022/11/18 14:45:44;;;;;;;2.83;1.00;;;10.30;99.90;;;;;;10123239;29;20048;-80
2022/11/18 14:50:47;;;;;;;1.98;0.80;;;10.60;99.90;;;;;;10140684;29;20414;-81
2022/11/18 14:55:52;;;;;;;2.42;0.85;;;13.30;99.90;;;;;;10142000;29;20059;-80
2022/11/18 15:00:56;;;;;;;3.53;1.02;;;15.90;95.60;;;;;;10162483;29;20056;-78
2022/11/18 15:05:57;;;;;;;3.22;1.30;;;16.90;91.80;;;;;;10153538;29;20059;-77
2022/11/18 15:11:00;;;;;;;2.67;1.10;;;17.50;90.20;;;;;;10138587;29;20053;-79
2022/11/18 15:16:13;;;;;;;5.18;1.20;;;17.50;88.10;;;;;;10131743;29;20063;-79
2022/11/18 15:21:15;;;;;;;2.95;0.95;;;15.70;92.20;;;;;;10116101;29;20518;-77
2022/11/18 15:26:21;;;;;;;3.00;1.10;;;14.40;94.70;;;;;;10132438;29;20048;-79
2022/11/18 15:31:25;;;;;;;2.40;0.80;;;13.70;96.30;;;;;;10132995;29;20056;-78
2022/11/18 15:36:27;;;;;;;3.50;0.90;;;13.00;97.30;;;;;;10127817;29;20056;-78
2022/11/18 15:41:31;;;;;;;2.67;0.82;;;12.40;98.30;;;;;;10131987;29;20057;-79
2022/11/18 15:46:34;;;;;;;3.13;1.05;;;12.10;99.30;;;;;;10131750;29;20052;-78
2022/11/18 15:51:36;;;;;;;4.10;1.00;;;11.90;99.70;;;;;;10132152;29;20129;-80
2022/11/18 15:56:38;;;;;;;3.95;0.85;;;11.70;99.90;;;;;;10143635;29;20053;-79
2022/11/18 16:01:45;;;;;;;3.95;1.60;;;11.60;99.90;;;;;;10148366;29;20064;-79
2022/11/18 16:06:47;;;;;;;2.88;0.95;;;11.50;99.90;;;;;;10130169;29;20048;-79
2022/11/18 16:17:10;;;;;;;2.05;0.85;;;11.00;99.90;;;;;;10129297;29;20048;-80
2022/11/18 16:22:12;;;;;;;3.55;1.08;;;10.90;99.90;;;;;;10130946;29;20052;-79
2022/11/18 16:27:14;;;;;;;3.58;1.30;;;11.00;99.90;;;;;;10130461;29;20542;-78
2022/11/18 16:32:18;;;;;;;3.47;1.40;;;10.80;99.90;;;;;;10130209;29;20064;-77
2022/11/18 16:37:20;;;;;;;5.45;1.80;;;10.80;99.90;;;;;;10131677;29;20053;-79
2022/11/18 16:42:22;;;;;;;3.13;1.30;;;10.70;99.90;;;;;;10130753;29;20112;-78
2022/11/18 16:47:26;;;;;;;3.40;1.25;;;10.70;99.90;;;;;;10130341;29;20093;-78
2022/11/18 16:52:28;;;;;;;3.35;1.42;;;10.60;99.90;;;;;;10129006;29;20100;-78
2022/11/18 16:57:30;;;;;;;4.75;1.50;;;10.50;99.90;;;;;;10130630;29;20049;-79
2022/11/18 17:02:33;;;;;;;6.13;1.50;;;10.20;99.90;;;;;;10128860;29;20056;-78
2022/11/18 17:07:35;;;;;;;5.75;1.80;;;10.20;99.90;;;;;;10123019;29;20076;-79
2022/11/18 17:12:37;;;;;;;6.32;1.60;;;10.00;99.90;;;;;;10128783;29;20486;-78
2022/11/18 17:17:40;;;;;;;4.32;1.90;;;10.00;99.90;;;;;;10128922;29;20112;-79
2022/11/18 17:22:42;;;;;;;4.03;1.67;;;9.80;99.90;;;;;;10134072;29;20056;-77
2022/11/18 17:27:45;;;;;;;4.55;1.67;;;9.70;99.90;;;;;;10130199;29;20048;-76
2022/11/18 17:32:49;;;;;;;4.88;1.90;;;9.60;99.90;;;;;;10128380;29;20075;-78
2022/11/18 17:37:51;;;;;;;5.03;2.20;;;9.60;99.90;;;;;;10139028;29;20047;-80
2022/11/18 17:42:53;;;;;;;4.28;1.70;;;9.50;99.90;;;;;;10131640;29;20531;-79
2022/11/18 17:47:57;;;;;;;5.38;1.95;;;9.40;99.90;;;;;;10126032;29;20059;-79
2022/11/18 17:52:59;;;;;;;6.35;2.75;;;9.40;99.90;;;;;;10157897;29;20052;-80
2022/11/18 17:58:02;;;;;;;5.88;1.83;;;9.40;99.90;;;;;;10144997;29;20049;-79
2022/11/18 18:03:06;;;;;;;4.47;1.77;;;9.40;99.90;;;;;;10140216;29;20049;-80
2022/11/18 18:08:08;;;;;;;5.85;2.00;;;9.40;99.90;;;;;;10125369;29;20052;-80
2022/11/18 18:18:32;;;;;;;5.95;1.92;;;9.40;99.90;;;;;;10134872;29;20052;-81
2022/11/18 18:23:34;;;;;;;4.85;1.95;;;9.30;99.90;;;;;;10137132;29;20057;-79
2022/11/18 18:28:37;;;;;;;4.05;1.85;;;9.30;99.90;;;;;;10138003;29;20056;-78
2022/11/18 18:33:41;;;;;;;5.93;2.13;;;9.20;99.90;;;;;;10125318;29;20061;-79
2022/11/18 18:38:43;;;;;;;3.80;1.98;;;9.30;99.90;;;;;;10135708;29;20120;-79
2022/11/18 18:43:46;;;;;;;5.13;1.95;;;9.20;99.90;;;;;;10135213;29;20056;-77
2022/11/18 18:48:50;;;;;;;3.72;1.88;;;9.20;99.90;;;;;;10144963;29;20060;-82
2022/11/18 18:53:52;;;;;;;5.15;2.03;;;9.20;99.90;;;;;;10135522;29;20065;-81
2022/11/18 18:59:03;;;;;;;5.55;2.10;;;9.20;99.90;;;;;;10135063;29;20506;-80
